sensor_id;sensor_type;location;lat;lon;timestamp;pressure;altitude;pressure_sealevel;temperature;humidity
21273;BME280;36726;52.328;10.552;2023-03-01T00:01:13;102091.22;;;-1.42;81.49
21273;BME280;36726;52.328;10.552;2023-03-01T00:03:41;102095.38;;;-1.44;81.99
21273;BME280;36726;52.328;10.552;2023-03-01T00:06:08;102095.53;;;-1.43;81.82
21273;BME280;36726;52.328;10.552;2023-03-01T00:08:35;102093.69;;;-1.44;81.67
21273;BME280;36726;52.328;10.552;2023-03-01T00:11:06;102093.44;;;-1.47;82.24
21273;BME280;36726;52.328;10.552;2023-03-01T00:13:34;102100.44;;;-1.46;82.15
21273;BME280;36726;52.328;10.552;2023-03-01T00:16:05;102100.19;;;-1.49;82.24
21273;BME280;36726;52.328;10.552;2023-03-01T00:18:31;102099.94;;;-1.52;82.20
21273;BME280;36726;52.328;10.552;2023-03-01T00:20:58;102097.19;;;-1.53;82.49
21273;BME280;36726;52.328;10.552;2023-03-01T00:23:26;102087.47;;;-1.56;82.23
21273;BME280;36726;52.328;10.552;2023-03-01T00:25:52;102091.00;;;-1.55;82.37
21273;BME280;36726;52.328;10.552;2023-03-01T00:28:19;102078.66;;;-1.58;82.54
21273;BME280;36726;52.328;10.552;2023-03-01T00:30:46;102078.41;;;-1.61;82.71
21273;BME280;36726;52.328;10.552;2023-03-01T00:33:13;102091.22;;;-1.62;82.73
21273;BME280;36726;52.328;10.552;2023-03-01T00:35:40;102088.50;;;-1.64;82.91
21273;BME280;36726;52.328;10.552;2023-03-01T00:38:06;102081.50;;;-1.65;83.04
21273;BME280;36726;52.328;10.552;2023-03-01T00:40:35;102080.59;;;-1.65;83.27
21273;BME280;36726;52.328;10.552;2023-03-01T00:43:02;102087.47;;;-1.66;83.16
21273;BME280;36726;52.328;10.552;2023-03-01T00:45:29;102085.66;;;-1.67;83.37
21273;BME280;36726;52.328;10.552;2023-03-01T00:47:57;102082.94;;;-1.68;83.14
21273;BME280;36726;52.328;10.552;2023-03-01T00:50:24;102088.00;;;-1.70;83.15
21273;BME280;36726;52.328;10.552;2023-03-01T00:52:55;102080.06;;;-1.71;83.45
21273;BME280;36726;52.328;10.552;2023-03-01T00:55:22;102085.13;;;-1.73;83.43
21273;BME280;36726;52.328;10.552;2023-03-01T00:57:49;102084.09;;;-1.75;83.90
21273;BME280;36726;52.328;10.552;2023-03-01T01:00:19;102083.03;;;-1.77;83.72
21273;BME280;36726;52.328;10.552;2023-03-01T01:02:46;102081.25;;;-1.78;83.75
21273;BME280;36726;52.328;10.552;2023-03-01T01:05:13;102080.19;;;-1.80;83.78
21273;BME280;36726;52.328;10.552;2023-03-01T01:07:40;102080.06;;;-1.81;84.03
21273;BME280;36726;52.328;10.552;2023-03-01T01:10:07;102071.13;;;-1.85;83.85
21273;BME280;36726;52.328;10.552;2023-03-01T01:12:34;102067.50;;;-1.87;84.59
21273;BME280;36726;52.328;10.552;2023-03-01T01:15:00;102070.88;;;-1.88;84.55
21273;BME280;36726;52.328;10.552;2023-03-01T01:17:27;102064.78;;;-1.88;84.55
21273;BME280;36726;52.328;10.552;2023-03-01T01:19:53;102062.31;;;-1.87;84.83
21273;BME280;36726;52.328;10.552;2023-03-01T01:22:20;102056.19;;;-1.87;84.50
21273;BME280;36726;52.328;10.552;2023-03-01T01:24:46;102063.84;;;-1.89;84.80
21273;BME280;36726;52.328;10.552;2023-03-01T01:27:13;102059.59;;;-1.88;84.88
21273;BME280;36726;52.328;10.552;2023-03-01T01:29:39;102061.13;;;-1.90;85.23
21273;BME280;36726;52.328;10.552;2023-03-01T01:32:08;102055.53;;;-1.95;85.07
21273;BME280;36726;52.328;10.552;2023-03-01T01:34:34;102056.22;;;-1.97;85.22
21273;BME280;36726;52.328;10.552;2023-03-01T01:37:01;102054.25;;;-2.00;85.08
21273;BME280;36726;52.328;10.552;2023-03-01T01:39:29;102064.38;;;-2.03;85.47
21273;BME280;36726;52.328;10.552;2023-03-01T01:41:55;102062.69;;;-2.02;85.57
21273;BME280;36726;52.328;10.552;2023-03-01T01:44:27;102060.97;;;-2.02;84.95
21273;BME280;36726;52.328;10.552;2023-03-01T01:46:58;102061.78;;;-2.03;85.21
21273;BME280;36726;52.328;10.552;2023-03-01T01:49:38;102060.72;;;-2.05;85.30
21273;BME280;36726;52.328;10.552;2023-03-01T01:52:25;102052.72;;;-2.08;85.47
21273;BME280;36726;52.328;10.552;2023-03-01T01:55:02;102056.06;;;-2.09;85.58
21273;BME280;36726;52.328;10.552;2023-03-01T01:57:36;102041.91;;;-2.13;85.60
21273;BME280;36726;52.328;10.552;2023-03-01T02:02:41;102045.94;;;-2.16;85.79
21273;BME280;36726;52.328;10.552;2023-03-01T02:05:18;102038.03;;;-2.18;85.86
21273;BME280;36726;52.328;10.552;2023-03-01T02:07:47;102047.34;;;-2.20;86.00
21273;BME280;36726;52.328;10.552;2023-03-01T02:10:19;102036.88;;;-2.21;85.66
21273;BME280;36726;52.328;10.552;2023-03-01T02:12:46;102038.53;;;-2.22;85.86
21273;BME280;36726;52.328;10.552;2023-03-01T02:15:13;102031.56;;;-2.23;86.35
21273;BME280;36726;52.328;10.552;2023-03-01T02:17:40;102029.88;;;-2.22;86.20
21273;BME280;36726;52.328;10.552;2023-03-01T02:20:27;102028.03;;;-2.23;86.01
21273;BME280;36726;52.328;10.552;2023-03-01T02:22:57;102027.13;;;-2.24;86.49
21273;BME280;36726;52.328;10.552;2023-03-01T02:25:49;102015.72;;;-2.26;86.51
21273;BME280;36726;52.328;10.552;2023-03-01T02:28:33;102004.34;;;-2.28;86.59
21273;BME280;36726;52.328;10.552;2023-03-01T02:31:03;102005.22;;;-2.27;86.27
21273;BME280;36726;52.328;10.552;2023-03-01T02:33:49;102005.91;;;-2.30;86.51
21273;BME280;36726;52.328;10.552;2023-03-01T02:36:21;102012.75;;;-2.30;86.15
21273;BME280;36726;52.328;10.552;2023-03-01T02:38:51;102004.72;;;-2.33;86.29
21273;BME280;36726;52.328;10.552;2023-03-01T02:41:19;102010.66;;;-2.34;86.26
21273;BME280;36726;52.328;10.552;2023-03-01T02:43:47;102006.16;;;-2.37;86.14
21273;BME280;36726;52.328;10.552;2023-03-01T02:46:21;102007.81;;;-2.37;86.04
21273;BME280;36726;52.328;10.552;2023-03-01T02:48:51;102000.53;;;-2.41;85.93
21273;BME280;36726;52.328;10.552;2023-03-01T02:51:21;101994.31;;;-2.43;86.30
21273;BME280;36726;52.328;10.552;2023-03-01T02:53:56;101985.38;;;-2.47;86.19
21273;BME280;36726;52.328;10.552;2023-03-01T02:56:25;101986.16;;;-2.48;86.04
21273;BME280;36726;52.328;10.552;2023-03-01T02:58:52;101982.66;;;-2.48;86.32
21273;BME280;36726;52.328;10.552;2023-03-01T03:01:20;101980.88;;;-2.49;86.06
21273;BME280;36726;52.328;10.552;2023-03-01T03:03:46;101984.22;;;-2.50;85.88
21273;BME280;36726;52.328;10.552;2023-03-01T03:06:13;101979.81;;;-2.51;85.83
21273;BME280;36726;52.328;10.552;2023-03-01T03:08:40;101983.28;;;-2.51;86.31
21273;BME280;36726;52.328;10.552;2023-03-01T03:11:06;101983.97;;;-2.53;86.24
21273;BME280;36726;52.328;10.552;2023-03-01T03:13:33;101989.13;;;-2.53;86.00
21273;BME280;36726;52.328;10.552;2023-03-01T03:16:02;101991.59;;;-2.55;86.23
21273;BME280;36726;52.328;10.552;2023-03-01T03:18:29;101989.75;;;-2.56;86.33
21273;BME280;36726;52.328;10.552;2023-03-01T03:20:56;101979.28;;;-2.57;86.29
21273;BME280;36726;52.328;10.552;2023-03-01T03:23:23;101985.25;;;-2.58;86.35
21273;BME280;36726;52.328;10.552;2023-03-01T03:25:50;101987.84;;;-2.58;86.71
21273;BME280;36726;52.328;10.552;2023-03-01T03:28:17;101992.09;;;-2.59;86.93
21273;BME280;36726;52.328;10.552;2023-03-01T03:30:44;101981.63;;;-2.60;86.80
21273;BME280;36726;52.328;10.552;2023-03-01T03:33:11;101988.59;;;-2.59;87.09
21273;BME280;36726;52.328;10.552;2023-03-01T03:35:42;101989.38;;;-2.60;87.24
21273;BME280;36726;52.328;10.552;2023-03-01T03:38:11;101993.50;;;-2.62;87.27
21273;BME280;36726;52.328;10.552;2023-03-01T03:40:58;101989.88;;;-2.64;87.31
21273;BME280;36726;52.328;10.552;2023-03-01T03:43:29;101979.53;;;-2.64;87.62
21273;BME280;36726;52.328;10.552;2023-03-01T03:45:56;101986.25;;;-2.66;87.73
21273;BME280;36726;52.328;10.552;2023-03-01T03:48:26;101981.84;;;-2.67;87.63
21273;BME280;36726;52.328;10.552;2023-03-01T03:50:54;101987.03;;;-2.67;87.79
21273;BME280;36726;52.328;10.552;2023-03-01T03:53:22;101984.44;;;-2.67;87.93
21273;BME280;36726;52.328;10.552;2023-03-01T03:55:49;101978.34;;;-2.68;87.92
21273;BME280;36726;52.328;10.552;2023-03-01T03:58:16;101987.78;;;-2.68;87.49
21273;BME280;36726;52.328;10.552;2023-03-01T04:00:47;101988.59;;;-2.69;87.56
21273;BME280;36726;52.328;10.552;2023-03-01T04:03:15;101989.34;;;-2.70;87.47
21273;BME280;36726;52.328;10.552;2023-03-01T04:05:42;101989.09;;;-2.73;87.18
21273;BME280;36726;52.328;10.552;2023-03-01T04:08:09;101994.25;;;-2.73;87.06
21273;BME280;36726;52.328;10.552;2023-03-01T04:10:38;101993.34;;;-2.74;86.84
21273;BME280;36726;52.328;10.552;2023-03-01T04:13:07;101994.00;;;-2.76;86.37
21273;BME280;36726;52.328;10.552;2023-03-01T04:15:34;101994.63;;;-2.79;86.55
21273;BME280;36726;52.328;10.552;2023-03-01T04:18:01;102000.44;;;-2.81;86.25
21273;BME280;36726;52.328;10.552;2023-03-01T04:20:30;102000.31;;;-2.83;86.09
21273;BME280;36726;52.328;10.552;2023-03-01T04:23:03;102001.72;;;-2.86;86.40
21273;BME280;36726;52.328;10.552;2023-03-01T04:25:39;102002.63;;;-2.86;86.00
21273;BME280;36726;52.328;10.552;2023-03-01T04:28:05;102002.63;;;-2.86;86.04
21273;BME280;36726;52.328;10.552;2023-03-01T04:30:32;101996.28;;;-2.89;86.22
21273;BME280;36726;52.328;10.552;2023-03-01T04:33:06;101996.16;;;-2.91;86.24
21273;BME280;36726;52.328;10.552;2023-03-01T04:35:33;101993.56;;;-2.91;86.19
21273;BME280;36726;52.328;10.552;2023-03-01T04:38:01;101993.41;;;-2.92;85.86
21273;BME280;36726;52.328;10.552;2023-03-01T04:40:27;101992.38;;;-2.94;86.06
21273;BME280;36726;52.328;10.552;2023-03-01T04:42:54;101988.75;;;-2.96;86.02
21273;BME280;36726;52.328;10.552;2023-03-01T04:45:21;101986.03;;;-2.98;86.13
21273;BME280;36726;52.328;10.552;2023-03-01T04:47:47;101985.88;;;-2.99;86.47
21273;BME280;36726;52.328;10.552;2023-03-01T04:50:17;101979.81;;;-3.00;86.41
21273;BME280;36726;52.328;10.552;2023-03-01T04:52:46;101982.41;;;-3.00;86.39
21273;BME280;36726;52.328;10.552;2023-03-01T04:55:13;101981.47;;;-3.00;86.30
21273;BME280;36726;52.328;10.552;2023-03-01T04:57:40;101981.22;;;-3.03;86.47
21273;BME280;36726;52.328;10.552;2023-03-01T05:00:10;101980.31;;;-3.04;86.36
21273;BME280;36726;52.328;10.552;2023-03-01T05:02:58;101980.16;;;-3.05;87.09
21273;BME280;36726;52.328;10.552;2023-03-01T05:05:35;101984.56;;;-3.04;86.89
21273;BME280;36726;52.328;10.552;2023-03-01T05:08:05;101974.88;;;-3.07;86.90
21273;BME280;36726;52.328;10.552;2023-03-01T05:10:33;101973.28;;;-3.05;86.91
21273;BME280;36726;52.328;10.552;2023-03-01T05:13:02;101974.22;;;-3.04;86.76
21273;BME280;36726;52.328;10.552;2023-03-01T05:15:31;101974.34;;;-3.03;86.74
21273;BME280;36726;52.328;10.552;2023-03-01T05:17:59;101981.97;;;-3.04;86.75
21273;BME280;36726;52.328;10.552;2023-03-01T05:20:27;101975.75;;;-3.06;86.65
21273;BME280;36726;52.328;10.552;2023-03-01T05:22:57;101973.16;;;-3.06;86.84
21273;BME280;36726;52.328;10.552;2023-03-01T05:25:25;101970.44;;;-3.08;87.36
21273;BME280;36726;52.328;10.552;2023-03-01T05:27:51;101959.97;;;-3.09;87.30
21273;BME280;36726;52.328;10.552;2023-03-01T05:30:18;101971.84;;;-3.11;87.21
21273;BME280;36726;52.328;10.552;2023-03-01T05:32:48;101969.88;;;-3.14;87.17
21273;BME280;36726;52.328;10.552;2023-03-01T05:35:17;101964.59;;;-3.16;87.41
21273;BME280;36726;52.328;10.552;2023-03-01T05:37:45;101962.00;;;-3.16;87.40
21273;BME280;36726;52.328;10.552;2023-03-01T05:40:15;101968.72;;;-3.18;87.56
21273;BME280;36726;52.328;10.552;2023-03-01T05:42:50;101970.41;;;-3.18;87.48
21273;BME280;36726;52.328;10.552;2023-03-01T05:45:18;101965.25;;;-3.18;87.62
21273;BME280;36726;52.328;10.552;2023-03-01T05:47:47;101965.25;;;-3.18;87.41
21273;BME280;36726;52.328;10.552;2023-03-01T05:50:19;101968.56;;;-3.19;87.19
21273;BME280;36726;52.328;10.552;2023-03-01T05:52:47;101965.84;;;-3.21;86.96
21273;BME280;36726;52.328;10.552;2023-03-01T05:55:19;101965.84;;;-3.21;87.31
21273;BME280;36726;52.328;10.552;2023-03-01T05:57:46;101961.47;;;-3.22;87.25
21273;BME280;36726;52.328;10.552;2023-03-01T06:00:14;101956.91;;;-3.24;87.09
21273;BME280;36726;52.328;10.552;2023-03-01T06:02:41;101963.75;;;-3.25;87.21
21273;BME280;36726;52.328;10.552;2023-03-01T06:05:10;101965.47;;;-3.25;87.24
21273;BME280;36726;52.328;10.552;2023-03-01T06:07:37;101963.75;;;-3.25;86.97
21273;BME280;36726;52.328;10.552;2023-03-01T06:10:05;101960.28;;;-3.25;87.12
21273;BME280;36726;52.328;10.552;2023-03-01T06:12:36;101963.75;;;-3.25;87.00
21273;BME280;36726;52.328;10.552;2023-03-01T06:15:04;101963.16;;;-3.22;86.85
21273;BME280;36726;52.328;10.552;2023-03-01T06:17:33;101965.59;;;-3.24;86.84
21273;BME280;36726;52.328;10.552;2023-03-01T06:20:06;101965.47;;;-3.25;86.56
21273;BME280;36726;52.328;10.552;2023-03-01T06:22:33;101969.72;;;-3.26;86.45
21273;BME280;36726;52.328;10.552;2023-03-01T06:25:00;101965.31;;;-3.27;86.65
21273;BME280;36726;52.328;10.552;2023-03-01T06:27:26;101972.31;;;-3.26;86.84
21273;BME280;36726;52.328;10.552;2023-03-01T06:29:53;101962.88;;;-3.25;87.15
21273;BME280;36726;52.328;10.552;2023-03-01T06:32:20;101959.50;;;-3.24;87.21
21273;BME280;36726;52.328;10.552;2023-03-01T06:34:46;101961.59;;;-3.20;88.04
21273;BME280;36726;52.328;10.552;2023-03-01T06:37:13;101964.44;;;-3.17;87.05
21273;BME280;36726;52.328;10.552;2023-03-01T06:39:39;101963.81;;;-3.14;87.26
21273;BME280;36726;52.328;10.552;2023-03-01T06:42:08;101968.34;;;-3.12;87.38
21273;BME280;36726;52.328;10.552;2023-03-01T06:44:37;101973.03;;;-3.08;87.27
21273;BME280;36726;52.328;10.552;2023-03-01T06:47:04;101973.28;;;-3.05;87.15
21273;BME280;36726;52.328;10.552;2023-03-01T06:49:30;101974.63;;;-3.00;86.95
21273;BME280;36726;52.328;10.552;2023-03-01T06:51:57;101979.44;;;-2.94;87.22
21273;BME280;36726;52.328;10.552;2023-03-01T06:54:23;101976.50;;;-2.89;86.97
21273;BME280;36726;52.328;10.552;2023-03-01T06:56:50;101975.19;;;-2.84;87.33
21273;BME280;36726;52.328;10.552;2023-03-01T06:59:18;101977.28;;;-2.80;87.54
21273;BME280;36726;52.328;10.552;2023-03-01T07:01:45;101976.00;;;-2.75;87.66
21273;BME280;36726;52.328;10.552;2023-03-01T07:04:12;101968.00;;;-2.68;87.99
21273;BME280;36726;52.328;10.552;2023-03-01T07:06:39;101972.81;;;-2.62;88.07
21273;BME280;36726;52.328;10.552;2023-03-01T07:09:06;101978.50;;;-2.56;87.48
21273;BME280;36726;52.328;10.552;2023-03-01T07:11:32;101965.56;;;-2.46;87.65
21273;BME280;36726;52.328;10.552;2023-03-01T07:13:59;101967.13;;;-2.38;87.33
21273;BME280;36726;52.328;10.552;2023-03-01T07:16:27;101952.91;;;-2.33;87.15
21273;BME280;36726;52.328;10.552;2023-03-01T07:18:54;101950.31;;;-2.23;87.30
21273;BME280;36726;52.328;10.552;2023-03-01T07:21:21;101948.38;;;-2.16;87.13
21273;BME280;36726;52.328;10.552;2023-03-01T07:23:48;101956.78;;;-2.08;87.49
21273;BME280;36726;52.328;10.552;2023-03-01T07:26:15;101945.75;;;-2.05;87.76
21273;BME280;36726;52.328;10.552;2023-03-01T07:28:41;101939.81;;;-2.04;87.95
21273;BME280;36726;52.328;10.552;2023-03-01T07:31:08;101938.25;;;-2.02;88.08
21273;BME280;36726;52.328;10.552;2023-03-01T07:33:34;101943.06;;;-1.97;88.23
21273;BME280;36726;52.328;10.552;2023-03-01T07:36:03;101938.22;;;-1.92;88.32
21273;BME280;36726;52.328;10.552;2023-03-01T07:38:30;101937.84;;;-1.87;88.96
21273;BME280;36726;52.328;10.552;2023-03-01T07:41:01;101950.53;;;-1.80;89.32
21273;BME280;36726;52.328;10.552;2023-03-01T07:43:29;101946.78;;;-1.73;89.68
21273;BME280;36726;52.328;10.552;2023-03-01T07:46:00;101942.09;;;-1.67;89.85
21273;BME280;36726;52.328;10.552;2023-03-01T07:48:28;101947.09;;;-1.59;90.27
21273;BME280;36726;52.328;10.552;2023-03-01T07:50:58;101941.69;;;-1.52;90.34
21273;BME280;36726;52.328;10.552;2023-03-01T07:53:26;101949.19;;;-1.45;90.66
21273;BME280;36726;52.328;10.552;2023-03-01T07:56:07;101956.78;;;-1.36;90.67
21273;BME280;36726;52.328;10.552;2023-03-01T07:58:35;101954.84;;;-1.29;91.42
21273;BME280;36726;52.328;10.552;2023-03-01T08:01:03;101954.66;;;-1.20;91.08
21273;BME280;36726;52.328;10.552;2023-03-01T08:03:30;101955.28;;;-1.13;90.80
21273;BME280;36726;52.328;10.552;2023-03-01T08:05:59;101961.22;;;-1.03;90.26
21273;BME280;36726;52.328;10.552;2023-03-01T08:08:26;101954.16;;;-0.94;90.33
21273;BME280;36726;52.328;10.552;2023-03-01T08:10:56;101947.09;;;-0.85;90.22
21273;BME280;36726;52.328;10.552;2023-03-01T08:13:24;101952.22;;;-0.75;90.46
21273;BME280;36726;52.328;10.552;2023-03-01T08:15:51;101954.00;;;-0.64;89.79
21273;BME280;36726;52.328;10.552;2023-03-01T08:18:18;101951.19;;;-0.56;89.81
21273;BME280;36726;52.328;10.552;2023-03-01T08:20:45;101953.75;;;-0.46;89.38
21273;BME280;36726;52.328;10.552;2023-03-01T08:23:12;101945.66;;;-0.39;89.06
21273;BME280;36726;52.328;10.552;2023-03-01T08:25:39;101944.78;;;-0.28;89.01
21273;BME280;36726;52.328;10.552;2023-03-01T08:28:05;101937.69;;;-0.19;88.70
21273;BME280;36726;52.328;10.552;2023-03-01T08:30:32;101939.31;;;-0.09;88.49
21273;BME280;36726;52.328;10.552;2023-03-01T08:32:58;101940.13;;;0.02;88.04
21273;BME280;36726;52.328;10.552;2023-03-01T08:35:25;101937.41;;;0.12;87.91
21273;BME280;36726;52.328;10.552;2023-03-01T08:37:51;101937.44;;;0.23;87.41
21273;BME280;36726;52.328;10.552;2023-03-01T08:40:18;101937.44;;;0.35;87.25
21273;BME280;36726;52.328;10.552;2023-03-01T08:42:45;101936.44;;;0.44;87.06
21273;BME280;36726;52.328;10.552;2023-03-01T08:45:12;101924.31;;;0.56;86.08
21273;BME280;36726;52.328;10.552;2023-03-01T08:47:40;101932.03;;;0.66;86.00
21273;BME280;36726;52.328;10.552;2023-03-01T08:50:07;101932.72;;;0.75;85.68
21273;BME280;36726;52.328;10.552;2023-03-01T08:52:33;101930.78;;;0.84;85.32
21273;BME280;36726;52.328;10.552;2023-03-01T08:55:00;101934.03;;;0.93;84.68
21273;BME280;36726;52.328;10.552;2023-03-01T08:57:27;101934.72;;;1.02;84.48
21273;BME280;36726;52.328;10.552;2023-03-01T08:59:54;101928.31;;;1.11;84.46
21273;BME280;36726;52.328;10.552;2023-03-01T09:02:22;101935.13;;;1.20;83.84
21273;BME280;36726;52.328;10.552;2023-03-01T09:04:49;101922.75;;;1.29;82.81
21273;BME280;36726;52.328;10.552;2023-03-01T09:07:15;101926.91;;;1.39;82.47
21273;BME280;36726;52.328;10.552;2023-03-01T09:09:42;101931.97;;;1.49;82.15
21273;BME280;36726;52.328;10.552;2023-03-01T09:12:08;101930.00;;;1.58;80.86
21273;BME280;36726;52.328;10.552;2023-03-01T09:14:35;101921.00;;;1.66;80.32
21273;BME280;36726;52.328;10.552;2023-03-01T09:17:04;101921.50;;;1.73;80.17
21273;BME280;36726;52.328;10.552;2023-03-01T09:19:31;101931.59;;;1.80;80.45
21273;BME280;36726;52.328;10.552;2023-03-01T09:21:57;101928.63;;;1.87;80.03
21273;BME280;36726;52.328;10.552;2023-03-01T09:24:25;101927.31;;;1.94;78.34
21273;BME280;36726;52.328;10.552;2023-03-01T09:26:54;101926.34;;;2.05;78.36
21273;BME280;36726;52.328;10.552;2023-03-01T09:29:22;101927.16;;;2.17;77.57
21273;BME280;36726;52.328;10.552;2023-03-01T09:31:49;101928.50;;;2.24;77.68
21273;BME280;36726;52.328;10.552;2023-03-01T09:34:15;101925.50;;;2.31;77.29
21273;BME280;36726;52.328;10.552;2023-03-01T09:36:45;101928.50;;;2.37;76.64
21273;BME280;36726;52.328;10.552;2023-03-01T09:39:11;101923.78;;;2.44;75.08
21273;BME280;36726;52.328;10.552;2023-03-01T09:42:01;101926.72;;;2.49;75.21
21273;BME280;36726;52.328;10.552;2023-03-01T09:44:46;101914.19;;;2.56;74.84
21273;BME280;36726;52.328;10.552;2023-03-01T09:47:26;101912.75;;;2.61;74.60
21273;BME280;36726;52.328;10.552;2023-03-01T09:50:01;101913.16;;;2.67;73.63
21273;BME280;36726;52.328;10.552;2023-03-01T09:52:36;101909.25;;;2.74;73.67
21273;BME280;36726;52.328;10.552;2023-03-01T09:55:12;101903.69;;;2.82;73.01
21273;BME280;36726;52.328;10.552;2023-03-01T09:57:50;101906.81;;;2.90;72.11
21273;BME280;36726;52.328;10.552;2023-03-01T10:00:39;101904.59;;;2.96;71.15
21273;BME280;36726;52.328;10.552;2023-03-01T10:03:12;101910.41;;;3.05;68.37
21273;BME280;36726;52.328;10.552;2023-03-01T10:11:03;101906.34;;;3.23;68.43
21273;BME280;36726;52.328;10.552;2023-03-01T10:16:37;101909.00;;;3.38;68.50
21273;BME280;36726;52.328;10.552;2023-03-01T10:19:12;101911.22;;;3.45;66.54
21273;BME280;36726;52.328;10.552;2023-03-01T10:21:45;101905.56;;;3.52;66.58
21273;BME280;36726;52.328;10.552;2023-03-01T10:24:17;101908.53;;;3.58;65.38
21273;BME280;36726;52.328;10.552;2023-03-01T10:26:55;101904.69;;;3.66;65.86
21273;BME280;36726;52.328;10.552;2023-03-01T10:29:37;101902.44;;;3.72;63.79
21273;BME280;36726;52.328;10.552;2023-03-01T10:32:05;101903.63;;;3.77;62.44
21273;BME280;36726;52.328;10.552;2023-03-01T10:34:35;101898.75;;;3.83;62.00
21273;BME280;36726;52.328;10.552;2023-03-01T10:39:36;101901.91;;;3.92;61.26
21273;BME280;36726;52.328;10.552;2023-03-01T10:42:05;101897.97;;;3.98;61.00
21273;BME280;36726;52.328;10.552;2023-03-01T10:44:43;101888.50;;;4.00;60.21
21273;BME280;36726;52.328;10.552;2023-03-01T10:50:05;101893.38;;;4.09;61.11
21273;BME280;36726;52.328;10.552;2023-03-01T10:52:33;101893.53;;;4.12;60.95
21273;BME280;36726;52.328;10.552;2023-03-01T10:55:22;101887.69;;;4.16;60.76
21273;BME280;36726;52.328;10.552;2023-03-01T10:58:06;101891.47;;;4.21;60.60
21273;BME280;36726;52.328;10.552;2023-03-01T11:00:47;101874.97;;;4.22;60.79
21273;BME280;36726;52.328;10.552;2023-03-01T11:03:18;101882.97;;;4.25;61.16
21273;BME280;36726;52.328;10.552;2023-03-01T11:05:54;101877.03;;;4.28;61.02
21273;BME280;36726;52.328;10.552;2023-03-01T11:08:37;101873.03;;;4.34;59.36
21273;BME280;36726;52.328;10.552;2023-03-01T11:11:21;101880.44;;;4.41;59.43
21273;BME280;36726;52.328;10.552;2023-03-01T11:13:55;101872.13;;;4.48;59.89
21273;BME280;36726;52.328;10.552;2023-03-01T11:16:29;101867.09;;;4.51;59.52
21273;BME280;36726;52.328;10.552;2023-03-01T11:18:59;101859.53;;;4.57;58.78
21273;BME280;36726;52.328;10.552;2023-03-01T11:21:28;101865.94;;;4.62;59.19
21273;BME280;36726;52.328;10.552;2023-03-01T11:23:59;101864.50;;;4.67;59.67
21273;BME280;36726;52.328;10.552;2023-03-01T11:26:28;101860.34;;;4.71;58.70
21273;BME280;36726;52.328;10.552;2023-03-01T11:29:00;101868.44;;;4.75;57.11
21273;BME280;36726;52.328;10.552;2023-03-01T11:31:28;101858.25;;;4.80;57.95
21273;BME280;36726;52.328;10.552;2023-03-01T11:34:13;101853.25;;;4.84;57.79
21273;BME280;36726;52.328;10.552;2023-03-01T11:36:49;101854.31;;;4.88;56.35
21273;BME280;36726;52.328;10.552;2023-03-01T11:39:52;101861.63;;;4.93;56.75
21273;BME280;36726;52.328;10.552;2023-03-01T11:45:08;101860.25;;;5.00;56.72
21273;BME280;36726;52.328;10.552;2023-03-01T11:47:55;101859.50;;;5.02;56.42
21273;BME280;36726;52.328;10.552;2023-03-01T11:50:29;101855.25;;;5.04;54.70
21273;BME280;36726;52.328;10.552;2023-03-01T12:12:36;101837.66;;;5.34;55.27
21273;BME280;36726;52.328;10.552;2023-03-01T12:26:26;101831.84;;;5.56;55.28
21273;BME280;36726;52.328;10.552;2023-03-01T12:32:00;101803.25;;;5.62;54.92
21273;BME280;36726;52.328;10.552;2023-03-01T12:34:59;101803.59;;;5.68;54.47
21273;BME280;36726;52.328;10.552;2023-03-01T12:37:52;101801.28;;;5.74;53.66
21273;BME280;36726;52.328;10.552;2023-03-01T12:40:33;101797.03;;;5.76;54.75
21273;BME280;36726;52.328;10.552;2023-03-01T12:43:16;101795.34;;;5.78;54.32
21273;BME280;36726;52.328;10.552;2023-03-01T12:48:38;101778.31;;;5.86;54.39
21273;BME280;36726;52.328;10.552;2023-03-01T12:51:20;101780.28;;;5.90;52.82
21273;BME280;36726;52.328;10.552;2023-03-01T12:53:51;101780.44;;;5.93;52.68
21273;BME280;36726;52.328;10.552;2023-03-01T12:56:23;101777.88;;;5.94;52.51
21273;BME280;36726;52.328;10.552;2023-03-01T12:58:58;101769.25;;;5.97;51.62
21273;BME280;36726;52.328;10.552;2023-03-01T13:01:41;101766.78;;;6.00;52.25
21273;BME280;36726;52.328;10.552;2023-03-01T13:09:55;101753.13;;;6.07;51.77
21273;BME280;36726;52.328;10.552;2023-03-01T13:12:52;101760.31;;;6.11;52.48
21273;BME280;36726;52.328;10.552;2023-03-01T13:18:03;101747.19;;;6.11;52.45
21273;BME280;36726;52.328;10.552;2023-03-01T13:20:34;101751.66;;;6.12;51.52
21273;BME280;36726;52.328;10.552;2023-03-01T13:23:05;101744.72;;;6.14;51.55
21273;BME280;36726;52.328;10.552;2023-03-01T13:25:33;101744.94;;;6.18;49.87
21273;BME280;36726;52.328;10.552;2023-03-01T13:28:46;101749.53;;;6.22;50.64
21273;BME280;36726;52.328;10.552;2023-03-01T13:34:39;101743.50;;;6.25;49.98
21273;BME280;36726;52.328;10.552;2023-03-01T13:37:10;101741.06;;;6.28;50.30
21273;BME280;36726;52.328;10.552;2023-03-01T13:39:40;101736.75;;;6.30;50.22
21273;BME280;36726;52.328;10.552;2023-03-01T13:42:31;101737.72;;;6.32;50.25
21273;BME280;36726;52.328;10.552;2023-03-01T13:44:59;101731.66;;;6.33;50.38
21273;BME280;36726;52.328;10.552;2023-03-01T13:47:27;101722.94;;;6.34;50.15
21273;BME280;36726;52.328;10.552;2023-03-01T13:49:58;101724.75;;;6.35;50.87
21273;BME280;36726;52.328;10.552;2023-03-01T13:52:42;101723.16;;;6.39;50.03
21273;BME280;36726;52.328;10.552;2023-03-01T13:55:19;101718.78;;;6.39;49.60
21273;BME280;36726;52.328;10.552;2023-03-01T13:57:50;101713.69;;;6.42;50.33
21273;BME280;36726;52.328;10.552;2023-03-01T14:05:37;101708.72;;;6.48;48.66
21273;BME280;36726;52.328;10.552;2023-03-01T14:08:05;101700.81;;;6.48;48.80
21273;BME280;36726;52.328;10.552;2023-03-01T14:10:39;101695.56;;;6.48;48.58
21273;BME280;36726;52.328;10.552;2023-03-01T14:13:24;101699.78;;;6.45;48.39